createdAt,value
2018-09-27T00:00:20.884Z,20.30
2018-09-27T00:00:52.839Z,20.30
2018-09-27T00:01:24.680Z,20.30
2018-09-27T00:01:56.506Z,20.30
2018-09-27T00:02:28.387Z,20.30
2018-09-27T00:03:00.211Z,20.30
2018-09-27T00:03:32.129Z,20.30
2018-09-27T00:04:03.943Z,20.30
2018-09-27T00:04:35.746Z,20.20
2018-09-27T00:05:07.501Z,20.30
2018-09-27T00:05:39.432Z,20.20
2018-09-27T00:06:11.339Z,20.30
2018-09-27T00:06:43.203Z,20.30
2018-09-27T00:07:15.046Z,20.20
2018-09-27T00:07:46.823Z,20.30
2018-09-27T00:08:18.640Z,20.20
2018-09-27T00:08:50.474Z,20.20
2018-09-27T00:09:22.315Z,20.30
2018-09-27T00:09:54.185Z,20.20
2018-09-27T00:10:25.997Z,20.30
2018-09-27T00:10:57.815Z,20.30
2018-09-27T00:11:29.746Z,20.30
2018-09-27T00:12:01.596Z,20.30
2018-09-27T00:12:33.454Z,20.30
2018-09-27T00:13:05.241Z,20.30
2018-09-27T00:13:37.048Z,20.20
2018-09-27T00:14:08.944Z,20.20
2018-09-27T00:14:40.697Z,20.20
2018-09-27T00:15:12.593Z,20.30
2018-09-27T00:15:44.339Z,20.30
2018-09-27T00:16:16.210Z,20.30
2018-09-27T00:16:47.974Z,20.30
2018-09-27T00:17:19.903Z,20.30
2018-09-27T00:17:51.762Z,20.20
2018-09-27T00:18:23.642Z,20.20
2018-09-27T00:18:55.403Z,20.20
2018-09-27T00:19:27.327Z,20.30
2018-09-27T00:19:59.110Z,20.20
2018-09-27T00:20:30.922Z,20.20
2018-09-27T00:21:02.725Z,20.30
2018-09-27T00:21:34.537Z,20.20
2018-09-27T00:22:06.355Z,20.30
2018-09-27T00:22:38.196Z,20.30
2018-09-27T00:23:09.961Z,20.20
2018-09-27T00:23:41.728Z,20.20
2018-09-27T00:24:13.579Z,20.20
2018-09-27T00:24:45.461Z,20.20
2018-09-27T00:25:17.242Z,20.20
2018-09-27T00:25:49.055Z,20.20
2018-09-27T00:26:20.967Z,20.10
2018-09-27T00:26:52.805Z,20.20
2018-09-27T00:27:24.756Z,20.10
2018-09-27T00:27:56.664Z,20.20
2018-09-27T00:28:28.445Z,20.20
2018-09-27T00:29:00.236Z,20.20
2018-09-27T00:29:32.022Z,20.20
2018-09-27T00:30:03.905Z,20.20
2018-09-27T00:30:35.664Z,20.20
2018-09-27T00:31:07.480Z,20.30
2018-09-27T00:31:39.266Z,20.20
2018-09-27T00:32:11.086Z,20.20
2018-09-27T00:32:42.903Z,20.30
2018-09-27T00:38:04.932Z,20.30
2018-09-27T00:38:36.695Z,19.90
2018-09-27T00:39:08.549Z,19.90
2018-09-27T00:39:40.380Z,19.90
2018-09-27T00:40:12.211Z,19.90
2018-09-27T00:40:44.005Z,19.90
2018-09-27T00:41:15.840Z,19.90
2018-09-27T00:41:47.746Z,19.90
2018-09-27T00:42:19.569Z,19.90
2018-09-27T00:42:51.490Z,19.90
2018-09-27T00:43:23.332Z,19.90
2018-09-27T00:43:55.196Z,20.00
2018-09-27T00:44:27.020Z,19.90
2018-09-27T00:44:58.801Z,19.90
2018-09-27T00:45:30.669Z,20.00
2018-09-27T00:46:02.412Z,20.00
2018-09-27T00:46:34.261Z,20.00
2018-09-27T00:47:06.176Z,20.00
2018-09-27T00:47:38.033Z,20.00
2018-09-27T00:48:09.861Z,20.00
2018-09-27T00:48:41.650Z,20.00
2018-09-27T00:49:13.565Z,20.10
2018-09-27T00:49:45.339Z,20.00
2018-09-27T00:50:17.205Z,20.10
2018-09-27T00:50:49.019Z,20.10
2018-09-27T00:51:20.874Z,20.10
2018-09-27T00:51:52.753Z,20.10
2018-09-27T00:52:24.551Z,20.10
2018-09-27T00:52:56.312Z,20.10
2018-09-27T00:53:28.108Z,20.10
2018-09-27T00:53:59.908Z,20.00
2018-09-27T00:54:31.959Z,20.10
2018-09-27T00:55:03.739Z,20.10
2018-09-27T00:55:35.580Z,20.10
2018-09-27T00:56:07.338Z,20.10
2018-09-27T00:56:39.141Z,20.10
2018-09-27T00:57:10.966Z,20.10
2018-09-27T00:57:42.777Z,20.10
2018-09-27T00:58:14.545Z,20.10
2018-09-27T00:58:46.334Z,20.10
2018-09-27T00:59:18.093Z,20.10
2018-09-27T00:59:49.946Z,20.10
2018-09-27T01:00:21.849Z,20.10
2018-09-27T01:00:53.779Z,20.10
2018-09-27T01:01:25.540Z,20.10
2018-09-27T01:01:57.514Z,20.10
2018-09-27T01:02:29.297Z,20.10
2018-09-27T01:03:01.128Z,20.10
2018-09-27T01:03:33.012Z,20.10
2018-09-27T01:04:04.784Z,20.10
2018-09-27T01:04:36.537Z,20.10
2018-09-27T01:05:08.411Z,20.10
2018-09-27T01:05:40.336Z,20.10
2018-09-27T01:06:12.153Z,20.10
2018-09-27T01:06:43.983Z,20.10
2018-09-27T01:07:15.808Z,20.10
2018-09-27T01:07:47.577Z,20.10
2018-09-27T01:08:19.407Z,20.10
2018-09-27T01:08:51.197Z,20.10
2018-09-27T01:09:23.051Z,20.10
2018-09-27T01:09:54.908Z,20.10
2018-09-27T01:10:26.808Z,20.10
2018-09-27T01:10:58.750Z,20.10
2018-09-27T01:11:30.559Z,20.10
2018-09-27T01:12:02.425Z,20.10
2018-09-27T01:12:34.176Z,20.10
2018-09-27T01:13:05.977Z,20.10
2018-09-27T01:13:37.879Z,20.10
2018-09-27T01:14:09.677Z,20.10
2018-09-27T01:14:41.435Z,20.10
2018-09-27T01:15:13.315Z,20.10
2018-09-27T01:15:45.089Z,20.10
2018-09-27T01:16:16.877Z,20.10
2018-09-27T01:16:48.780Z,20.10
2018-09-27T01:17:20.609Z,20.10
2018-09-27T01:17:52.474Z,20.20
2018-09-27T01:18:24.400Z,20.10
2018-09-27T01:18:56.237Z,20.10
2018-09-27T01:19:28.062Z,20.10
2018-09-27T01:19:59.924Z,20.10
2018-09-27T01:20:31.771Z,20.10
2018-09-27T01:21:03.606Z,20.10
2018-09-27T01:21:35.459Z,20.10
2018-09-27T01:22:07.276Z,20.10
2018-09-27T01:22:39.224Z,20.10
2018-09-27T01:23:11.132Z,20.10
2018-09-27T01:23:42.949Z,20.10
2018-09-27T01:24:14.763Z,20.10
2018-09-27T01:24:46.563Z,20.10
2018-09-27T01:25:18.380Z,20.10
2018-09-27T01:25:50.211Z,20.10
2018-09-27T01:26:21.992Z,20.10
2018-09-27T01:26:53.770Z,20.10
2018-09-27T01:27:25.544Z,20.10
2018-09-27T01:27:57.370Z,20.10
2018-09-27T01:28:29.172Z,20.10
2018-09-27T01:29:00.990Z,20.10
2018-09-27T01:29:32.859Z,20.10
2018-09-27T01:30:04.627Z,20.10
2018-09-27T01:30:36.556Z,20.10
2018-09-27T01:31:08.301Z,20.10
2018-09-27T01:31:40.127Z,20.10
2018-09-27T01:32:11.932Z,20.10
2018-09-27T01:32:43.844Z,20.10
2018-09-27T01:33:15.895Z,20.10
2018-09-27T01:33:47.771Z,20.10
2018-09-27T01:34:19.589Z,20.10
2018-09-27T01:34:51.454Z,20.10
2018-09-27T01:35:23.313Z,20.10
2018-09-27T01:35:55.116Z,20.10
2018-09-27T01:36:26.928Z,20.10
2018-09-27T01:36:58.783Z,20.10
2018-09-27T01:37:30.564Z,20.10
2018-09-27T01:38:02.345Z,20.10
2018-09-27T01:38:34.213Z,20.10
2018-09-27T01:39:06.005Z,20.10
2018-09-27T01:39:37.805Z,20.10
2018-09-27T01:40:09.592Z,20.10
2018-09-27T01:40:41.483Z,20.10
2018-09-27T01:41:13.288Z,20.10
2018-09-27T01:41:45.306Z,20.10
2018-09-27T01:42:17.113Z,20.10
2018-09-27T01:42:48.986Z,20.10
2018-09-27T01:43:20.900Z,20.10
2018-09-27T01:43:52.790Z,20.10
2018-09-27T01:44:24.680Z,20.10
2018-09-27T01:44:56.548Z,20.10
2018-09-27T01:45:28.477Z,20.10
2018-09-27T01:46:00.284Z,20.10
2018-09-27T01:46:32.150Z,20.10
2018-09-27T01:47:04.012Z,20.10
2018-09-27T01:47:35.857Z,20.10
2018-09-27T01:48:07.678Z,20.10
2018-09-27T01:48:39.508Z,20.10
2018-09-27T01:49:11.331Z,20.10
2018-09-27T01:49:43.101Z,20.10
2018-09-27T01:50:14.930Z,20.00
2018-09-27T01:50:46.701Z,20.10
2018-09-27T01:51:18.575Z,20.00
2018-09-27T01:51:50.368Z,20.10
2018-09-27T01:52:22.282Z,20.10
2018-09-27T01:52:54.112Z,20.10
2018-09-27T01:53:25.875Z,20.10
2018-09-27T01:53:57.729Z,20.10
2018-09-27T01:54:29.620Z,20.10
2018-09-27T01:55:01.471Z,20.10
2018-09-27T01:55:33.248Z,20.10
2018-09-27T01:56:05.072Z,20.10
2018-09-27T01:56:37.016Z,20.10
2018-09-27T01:57:08.796Z,20.10
2018-09-27T01:57:40.648Z,20.10
2018-09-27T01:58:12.476Z,20.10
2018-09-27T01:58:44.261Z,20.00
2018-09-27T01:59:16.093Z,20.10
2018-09-27T01:59:47.854Z,20.10
2018-09-27T02:00:19.691Z,20.10
2018-09-27T02:00:51.609Z,20.10
2018-09-27T02:01:23.442Z,20.10
2018-09-27T02:01:55.253Z,20.10
2018-09-27T02:02:27.100Z,20.10
2018-09-27T02:02:58.851Z,19.90
2018-09-27T02:03:30.642Z,20.00
2018-09-27T02:04:02.468Z,20.00
2018-09-27T02:04:34.309Z,20.00
2018-09-27T02:05:06.120Z,20.00
2018-09-27T02:05:37.956Z,20.00
2018-09-27T02:06:09.805Z,20.00
2018-09-27T02:06:41.637Z,20.00
2018-09-27T02:07:13.515Z,20.00
2018-09-27T02:07:45.356Z,20.00
2018-09-27T02:08:17.164Z,20.00
2018-09-27T02:08:48.964Z,20.10
2018-09-27T02:09:20.832Z,20.10
2018-09-27T02:09:52.654Z,20.10
2018-09-27T02:10:24.479Z,20.00
2018-09-27T02:10:56.276Z,20.00
2018-09-27T02:11:28.189Z,20.10
2018-09-27T02:11:59.982Z,20.00
2018-09-27T02:12:31.812Z,20.00
2018-09-27T02:13:03.627Z,20.10
2018-09-27T02:13:35.435Z,20.10
2018-09-27T02:14:07.243Z,20.00
2018-09-27T02:14:39.003Z,20.10
2018-09-27T02:15:10.797Z,20.10
2018-09-27T02:15:42.606Z,20.00
2018-09-27T02:16:14.443Z,20.00
2018-09-27T02:16:46.203Z,20.00
2018-09-27T02:17:18.033Z,20.10
2018-09-27T02:17:49.904Z,20.00
2018-09-27T02:18:21.784Z,20.00
2018-09-27T02:18:53.586Z,20.00
2018-09-27T02:19:25.420Z,20.00
2018-09-27T02:19:57.253Z,20.00
2018-09-27T02:20:29.088Z,20.00
2018-09-27T02:21:00.929Z,20.00
2018-09-27T02:21:32.731Z,20.00
2018-09-27T02:22:04.534Z,20.10
2018-09-27T02:22:36.324Z,20.10
2018-09-27T02:23:08.164Z,20.00
2018-09-27T02:23:39.949Z,20.00
2018-09-27T02:24:11.772Z,20.00
2018-09-27T02:24:43.681Z,20.00
2018-09-27T02:25:15.497Z,20.00
2018-09-27T02:25:47.338Z,20.10
2018-09-27T02:26:19.124Z,20.00
2018-09-27T02:26:50.989Z,20.10
2018-09-27T02:27:22.856Z,20.10
2018-09-27T02:27:54.620Z,20.00
2018-09-27T02:28:26.487Z,20.10
2018-09-27T02:28:58.286Z,20.00
2018-09-27T02:29:30.109Z,20.00
2018-09-27T02:30:01.929Z,20.00
2018-09-27T02:30:33.737Z,20.00
2018-09-27T02:31:05.569Z,20.00
2018-09-27T02:31:37.433Z,20.00
2018-09-27T02:32:09.427Z,20.00
2018-09-27T02:32:41.258Z,20.00
2018-09-27T02:33:13.158Z,20.00
2018-09-27T02:33:45.058Z,20.00
2018-09-27T02:34:16.835Z,20.00
2018-09-27T02:34:48.727Z,20.00
2018-09-27T02:35:20.548Z,20.00
2018-09-27T02:35:52.506Z,20.00
2018-09-27T02:36:24.508Z,20.00
2018-09-27T02:36:56.387Z,20.00
2018-09-27T02:37:28.247Z,20.00
2018-09-27T02:38:00.087Z,20.00
2018-09-27T02:38:31.861Z,20.00
2018-09-27T02:39:03.707Z,20.00
2018-09-27T02:39:35.486Z,20.00
2018-09-27T02:40:07.277Z,20.00
2018-09-27T02:40:39.070Z,20.00
2018-09-27T02:41:10.928Z,20.00
2018-09-27T02:41:42.706Z,20.00
2018-09-27T02:42:14.537Z,20.00
2018-09-27T02:42:46.437Z,20.00
2018-09-27T02:43:18.284Z,20.00
2018-09-27T02:43:50.098Z,20.00
2018-09-27T02:44:22.027Z,20.00
2018-09-27T02:44:53.801Z,20.00
2018-09-27T02:45:25.648Z,20.00
2018-09-27T02:45:57.537Z,20.00
2018-09-27T02:46:29.340Z,20.00
2018-09-27T02:47:01.178Z,20.00
2018-09-27T02:47:33.006Z,20.00
2018-09-27T02:48:04.814Z,20.00
2018-09-27T02:48:36.578Z,20.00
2018-09-27T02:49:08.409Z,20.00
2018-09-27T02:49:40.280Z,20.00
2018-09-27T02:50:12.090Z,20.00
2018-09-27T02:50:44.035Z,20.00
2018-09-27T02:51:15.892Z,20.00
2018-09-27T02:51:47.719Z,20.00
2018-09-27T02:52:19.500Z,20.00
2018-09-27T02:52:51.302Z,20.00
2018-09-27T02:53:23.077Z,20.00
2018-09-27T02:53:54.940Z,20.00
2018-09-27T02:54:26.724Z,20.00
2018-09-27T02:54:58.568Z,20.00
2018-09-27T02:55:30.438Z,20.00
2018-09-27T02:56:02.261Z,20.00
2018-09-27T02:56:34.121Z,20.00
2018-09-27T02:57:05.979Z,20.00
2018-09-27T02:57:37.839Z,20.00
2018-09-27T02:58:09.748Z,20.00
2018-09-27T02:58:41.622Z,20.00
2018-09-27T02:59:13.451Z,20.00
2018-09-27T02:59:45.372Z,20.00
2018-09-27T03:00:17.253Z,20.00
2018-09-27T03:00:49.140Z,20.00
2018-09-27T03:01:21.011Z,20.00
2018-09-27T03:01:52.869Z,20.00
2018-09-27T03:02:24.740Z,20.00
2018-09-27T03:02:56.490Z,20.00
2018-09-27T03:03:28.287Z,20.00
2018-09-27T03:04:00.091Z,20.00
2018-09-27T03:04:31.960Z,20.00
2018-09-27T03:05:03.790Z,20.00
2018-09-27T03:05:35.604Z,20.00
2018-09-27T03:06:07.361Z,20.00
2018-09-27T03:06:39.180Z,20.00
2018-09-27T03:07:11.021Z,20.00
2018-09-27T03:07:42.859Z,20.00
2018-09-27T03:08:14.634Z,20.00
2018-09-27T03:08:46.457Z,20.00
2018-09-27T03:09:18.340Z,20.00
2018-09-27T03:09:50.146Z,20.00
2018-09-27T03:10:21.946Z,20.00
2018-09-27T03:10:53.764Z,20.00
2018-09-27T03:11:25.575Z,20.00
2018-09-27T03:11:57.368Z,20.00
2018-09-27T03:12:29.181Z,20.00
2018-09-27T03:13:00.961Z,20.00
2018-09-27T03:13:32.741Z,19.90
2018-09-27T03:14:04.577Z,20.00
2018-09-27T03:14:36.353Z,19.90
2018-09-27T03:15:08.120Z,19.90
2018-09-27T03:15:39.961Z,19.90
2018-09-27T03:16:11.780Z,19.90
2018-09-27T03:16:43.544Z,20.00
2018-09-27T03:17:15.361Z,19.90
2018-09-27T03:17:47.120Z,20.00
2018-09-27T03:18:18.963Z,19.90
2018-09-27T03:18:50.782Z,19.90
2018-09-27T03:19:22.680Z,19.90
2018-09-27T03:19:54.571Z,19.90
2018-09-27T03:20:26.356Z,19.90
2018-09-27T03:20:58.312Z,19.90
2018-09-27T03:21:30.105Z,19.90
2018-09-27T03:22:01.911Z,19.90
2018-09-27T03:22:33.781Z,19.90
2018-09-27T03:23:05.714Z,19.90
2018-09-27T03:23:37.545Z,19.90
2018-09-27T03:24:09.331Z,19.90
2018-09-27T03:24:41.236Z,19.90
2018-09-27T03:25:13.153Z,19.90
2018-09-27T03:25:44.987Z,20.00
2018-09-27T03:26:16.942Z,19.90
2018-09-27T03:26:48.744Z,19.90
2018-09-27T03:27:20.601Z,19.90
2018-09-27T03:27:52.411Z,20.00
2018-09-27T03:28:24.249Z,19.90
2018-09-27T03:28:56.155Z,19.90
2018-09-27T03:29:27.984Z,19.90
2018-09-27T03:29:59.742Z,20.00
2018-09-27T03:30:31.576Z,19.90
2018-09-27T03:31:03.503Z,19.90
2018-09-27T03:31:35.264Z,19.90
2018-09-27T03:32:07.110Z,19.90
2018-09-27T03:32:38.890Z,19.90
2018-09-27T03:33:10.732Z,19.90
2018-09-27T03:33:42.537Z,19.90
2018-09-27T03:34:14.394Z,19.90
2018-09-27T03:34:46.236Z,19.90
2018-09-27T03:35:18.144Z,19.90
2018-09-27T03:35:50.042Z,19.90
2018-09-27T03:36:21.881Z,19.90
2018-09-27T03:36:53.704Z,19.90
2018-09-27T03:37:25.573Z,19.90
2018-09-27T03:37:57.424Z,19.90
2018-09-27T03:38:29.200Z,19.90
2018-09-27T03:39:01.037Z,19.90
2018-09-27T03:39:32.877Z,19.90
2018-09-27T03:40:04.639Z,19.90
2018-09-27T03:40:36.512Z,19.90
2018-09-27T03:41:08.304Z,19.90
2018-09-27T03:41:40.159Z,19.90
2018-09-27T03:42:11.993Z,19.90
2018-09-27T03:42:43.832Z,19.90
2018-09-27T03:43:15.589Z,19.90
2018-09-27T03:43:47.397Z,19.90
2018-09-27T03:44:19.185Z,19.90
2018-09-27T03:44:50.975Z,19.90
2018-09-27T03:45:22.921Z,19.90
2018-09-27T03:45:54.789Z,20.00
2018-09-27T03:46:26.821Z,19.90
2018-09-27T03:46:58.626Z,19.90
2018-09-27T03:47:30.489Z,19.90
2018-09-27T03:48:02.302Z,19.90
2018-09-27T03:48:34.184Z,19.90
2018-09-27T03:49:06.015Z,19.90
2018-09-27T03:49:37.794Z,19.90
2018-09-27T03:50:09.595Z,19.90
2018-09-27T03:50:41.478Z,19.90
2018-09-27T03:51:13.285Z,19.90
2018-09-27T03:51:45.175Z,19.90
2018-09-27T03:52:16.975Z,19.90
2018-09-27T03:52:48.821Z,19.90
2018-09-27T03:53:20.677Z,19.90
2018-09-27T03:53:52.496Z,19.90
2018-09-27T03:54:24.263Z,19.90
2018-09-27T03:54:56.082Z,19.90
2018-09-27T03:55:27.875Z,19.90
2018-09-27T03:55:59.715Z,19.90
2018-09-27T03:56:31.476Z,19.90
2018-09-27T03:57:03.315Z,19.90
2018-09-27T03:57:35.170Z,19.90
2018-09-27T03:58:07.014Z,19.90
2018-09-27T03:58:38.809Z,19.90
2018-09-27T03:59:10.606Z,19.90
2018-09-27T03:59:42.386Z,19.90
2018-09-27T04:00:14.221Z,19.90
2018-09-27T04:00:46.074Z,19.90
2018-09-27T04:01:17.935Z,19.90
2018-09-27T04:01:49.705Z,19.90
2018-09-27T04:02:21.584Z,19.90
2018-09-27T04:02:53.417Z,19.90
2018-09-27T04:03:25.449Z,19.80
2018-09-27T04:03:57.050Z,19.90
2018-09-27T04:04:28.873Z,19.80
2018-09-27T04:05:00.734Z,19.80
2018-09-27T04:05:32.551Z,19.80
2018-09-27T04:06:04.385Z,19.80
2018-09-27T04:06:36.178Z,19.90
2018-09-27T04:07:07.956Z,19.90
2018-09-27T04:07:39.780Z,19.90
2018-09-27T04:08:11.642Z,19.90
2018-09-27T04:08:43.469Z,19.90
2018-09-27T04:09:15.274Z,19.80
2018-09-27T04:09:47.106Z,19.90
2018-09-27T04:10:18.867Z,19.80
2018-09-27T04:10:50.636Z,19.90
2018-09-27T04:11:22.434Z,19.90
2018-09-27T04:11:54.289Z,19.90
2018-09-27T04:12:26.195Z,19.90
2018-09-27T04:12:57.925Z,19.90
2018-09-27T04:13:29.768Z,19.90
2018-09-27T04:14:01.561Z,19.90
2018-09-27T04:14:33.317Z,19.90
2018-09-27T04:15:05.124Z,19.90
2018-09-27T04:15:36.922Z,19.90
2018-09-27T04:16:08.710Z,19.90
2018-09-27T04:16:40.485Z,19.90
2018-09-27T04:17:12.254Z,19.90
2018-09-27T04:17:44.011Z,19.90
2018-09-27T04:18:15.845Z,19.90
2018-09-27T04:18:47.723Z,19.90
2018-09-27T04:19:19.512Z,19.90
2018-09-27T04:19:51.367Z,19.90
2018-09-27T04:20:23.135Z,19.90
2018-09-27T04:20:54.976Z,19.90
2018-09-27T04:21:26.774Z,19.90
2018-09-27T04:21:58.804Z,19.90
2018-09-27T04:22:30.622Z,19.90
2018-09-27T04:23:02.416Z,19.90
2018-09-27T04:23:34.241Z,19.90
2018-09-27T04:24:06.086Z,19.90
2018-09-27T04:24:37.895Z,19.90
2018-09-27T04:25:09.798Z,19.90
2018-09-27T04:25:41.644Z,19.80
2018-09-27T04:26:13.491Z,19.80
2018-09-27T04:26:45.317Z,19.90
2018-09-27T04:27:17.161Z,19.80
2018-09-27T04:27:48.945Z,19.80
2018-09-27T04:28:20.747Z,19.80
2018-09-27T04:28:52.730Z,19.80
2018-09-27T04:29:24.526Z,19.80
2018-09-27T04:29:56.402Z,19.80
2018-09-27T04:30:28.280Z,19.80
2018-09-27T04:31:00.133Z,19.80
2018-09-27T04:31:31.913Z,19.80
2018-09-27T04:32:03.692Z,19.80
2018-09-27T04:32:35.615Z,19.80
2018-09-27T04:33:07.418Z,19.80
2018-09-27T04:33:39.202Z,19.80
2018-09-27T04:34:11.021Z,19.80
2018-09-27T04:34:42.835Z,19.80
2018-09-27T04:35:14.626Z,19.80
2018-09-27T04:35:46.454Z,19.80
2018-09-27T04:36:18.245Z,19.80
2018-09-27T04:36:50.145Z,19.80
2018-09-27T04:37:22.036Z,19.80
2018-09-27T04:37:53.885Z,19.80
2018-09-27T04:38:25.766Z,19.90
2018-09-27T04:38:57.556Z,19.80
2018-09-27T04:39:29.319Z,19.80
2018-09-27T04:40:01.136Z,19.80
2018-09-27T04:40:32.973Z,19.80
2018-09-27T04:41:04.868Z,19.80
2018-09-27T04:41:36.574Z,19.80
2018-09-27T04:42:08.427Z,19.80
2018-09-27T04:42:40.217Z,19.80
2018-09-27T04:43:12.072Z,19.80
2018-09-27T04:43:43.936Z,19.80
2018-09-27T04:44:15.736Z,19.80
2018-09-27T04:44:47.566Z,19.90
2018-09-27T04:45:19.369Z,19.90
2018-09-27T04:45:51.246Z,19.80
2018-09-27T04:46:22.987Z,19.80
2018-09-27T04:46:54.826Z,19.90
2018-09-27T04:47:26.696Z,19.80
2018-09-27T04:47:58.545Z,19.90
2018-09-27T04:48:30.440Z,19.90
2018-09-27T04:49:02.316Z,19.90
2018-09-27T04:49:34.246Z,19.80
2018-09-27T04:50:06.013Z,19.80
2018-09-27T04:50:37.932Z,19.90
2018-09-27T04:51:09.745Z,19.90
2018-09-27T04:51:41.563Z,19.90
2018-09-27T04:52:13.356Z,19.90
2018-09-27T04:52:45.128Z,19.90
2018-09-27T04:53:16.977Z,19.90
2018-09-27T04:53:48.829Z,19.90
2018-09-27T04:54:20.790Z,19.90
2018-09-27T04:54:52.565Z,19.90
2018-09-27T04:55:24.416Z,19.90
2018-09-27T04:55:56.247Z,19.90
2018-09-27T04:56:28.098Z,19.90
2018-09-27T04:57:00.016Z,19.80
2018-09-27T04:57:31.785Z,19.80
2018-09-27T04:58:03.630Z,19.80
2018-09-27T04:58:35.446Z,19.80
2018-09-27T04:59:07.378Z,19.80
2018-09-27T04:59:39.360Z,19.90
2018-09-27T05:00:11.327Z,19.90
2018-09-27T05:00:43.148Z,19.90
2018-09-27T05:01:15.017Z,19.80
2018-09-27T05:01:46.777Z,19.90
2018-09-27T05:02:18.705Z,19.90
2018-09-27T05:02:50.565Z,19.80
2018-09-27T05:03:22.370Z,19.80
2018-09-27T05:03:54.360Z,19.90
2018-09-27T05:04:26.184Z,19.80
2018-09-27T05:04:58.012Z,19.80
2018-09-27T05:05:29.997Z,19.80
2018-09-27T05:06:01.988Z,19.80
2018-09-27T05:06:33.826Z,19.80
2018-09-27T05:07:05.669Z,19.80
2018-09-27T05:07:37.380Z,19.80
2018-09-27T05:08:09.200Z,19.80
2018-09-27T05:08:41.053Z,19.80
2018-09-27T05:09:13.008Z,19.80
2018-09-27T05:09:44.837Z,19.80
2018-09-27T05:10:16.642Z,19.80
2018-09-27T05:10:48.479Z,19.80
2018-09-27T05:11:20.287Z,19.80
2018-09-27T05:11:52.128Z,19.80
2018-09-27T05:12:23.905Z,19.80
2018-09-27T05:12:55.787Z,19.80
2018-09-27T05:13:27.791Z,19.80
2018-09-27T05:13:59.599Z,19.10
2018-09-27T05:14:31.453Z,19.80
2018-09-27T05:15:03.366Z,19.80
2018-09-27T05:15:35.133Z,19.80
2018-09-27T05:16:07.090Z,19.80
2018-09-27T05:16:38.831Z,19.80
2018-09-27T05:17:10.582Z,19.80
2018-09-27T05:17:42.556Z,19.80
2018-09-27T05:18:14.357Z,19.80
2018-09-27T05:18:46.139Z,19.80
2018-09-27T05:19:18.067Z,19.80
2018-09-27T05:19:49.894Z,19.80
2018-09-27T05:20:21.770Z,19.80
2018-09-27T05:20:53.623Z,19.80
2018-09-27T05:21:25.413Z,19.80
2018-09-27T05:21:57.366Z,19.80
2018-09-27T05:22:29.169Z,19.80
2018-09-27T05:23:01.134Z,19.80
2018-09-27T05:23:33.049Z,19.80
2018-09-27T05:24:04.877Z,19.80
2018-09-27T05:24:36.741Z,19.80
2018-09-27T05:25:08.535Z,19.80
2018-09-27T05:25:40.298Z,19.80
2018-09-27T05:26:12.178Z,19.80
2018-09-27T05:26:44.055Z,19.80
2018-09-27T05:27:15.983Z,19.80
2018-09-27T05:27:47.869Z,19.80
2018-09-27T05:28:19.628Z,19.80
2018-09-27T05:28:51.440Z,19.80
2018-09-27T05:29:23.381Z,19.80
2018-09-27T05:29:55.215Z,19.80
2018-09-27T05:30:27.037Z,19.80
2018-09-27T05:30:58.880Z,19.80
2018-09-27T05:31:30.678Z,19.80
2018-09-27T05:32:02.478Z,19.80
2018-09-27T05:32:34.286Z,19.80
2018-09-27T05:33:06.129Z,19.80
2018-09-27T05:33:38.025Z,19.70
2018-09-27T05:34:09.767Z,19.80
2018-09-27T05:34:41.653Z,19.80
2018-09-27T05:35:13.469Z,19.80
2018-09-27T05:35:45.314Z,19.80
2018-09-27T05:36:17.157Z,19.80
2018-09-27T05:36:48.925Z,19.80
2018-09-27T05:37:20.800Z,19.80
2018-09-27T05:37:52.558Z,19.80
2018-09-27T05:38:24.398Z,19.80
2018-09-27T05:38:56.217Z,19.80
2018-09-27T05:39:28.219Z,19.80
2018-09-27T05:39:59.963Z,19.80
2018-09-27T05:40:31.781Z,19.80
2018-09-27T05:41:03.659Z,19.80
2018-09-27T05:41:35.499Z,19.80
2018-09-27T05:42:07.387Z,19.80
2018-09-27T05:42:39.290Z,19.80
2018-09-27T05:43:11.249Z,19.80
2018-09-27T05:43:43.012Z,19.80
2018-09-27T05:44:14.800Z,19.80
2018-09-27T05:44:46.626Z,19.80
2018-09-27T05:45:18.430Z,19.80
2018-09-27T05:45:50.223Z,19.80
2018-09-27T05:46:22.102Z,19.80
2018-09-27T05:46:53.909Z,19.80
2018-09-27T05:47:25.790Z,19.80
2018-09-27T05:47:57.670Z,19.80
2018-09-27T05:48:29.519Z,19.80
2018-09-27T05:49:01.360Z,19.80
2018-09-27T05:49:33.380Z,19.80
2018-09-27T05:50:05.200Z,19.80
2018-09-27T05:50:37.032Z,19.80
2018-09-27T05:51:08.893Z,19.80
2018-09-27T05:51:40.935Z,19.80
2018-09-27T05:52:12.698Z,19.80
2018-09-27T05:52:44.529Z,19.80
2018-09-27T05:53:16.339Z,19.80
2018-09-27T05:53:48.129Z,19.80
2018-09-27T05:54:19.909Z,19.80
2018-09-27T05:54:51.686Z,19.80
2018-09-27T05:55:23.529Z,19.80
2018-09-27T05:55:55.407Z,19.80
2018-09-27T05:56:27.274Z,19.80
2018-09-27T05:56:59.190Z,19.80
2018-09-27T05:57:31.081Z,19.80
2018-09-27T05:58:02.892Z,19.80
2018-09-27T05:58:34.690Z,19.80
2018-09-27T05:59:06.428Z,19.80
2018-09-27T05:59:38.423Z,19.80
2018-09-27T06:00:10.193Z,19.80
2018-09-27T06:00:42.011Z,19.80
2018-09-27T06:01:13.813Z,19.80
2018-09-27T06:01:45.594Z,19.80
2018-09-27T06:02:17.365Z,19.80
2018-09-27T06:02:49.170Z,19.80
2018-09-27T06:03:21.023Z,19.80
2018-09-27T06:03:52.833Z,19.80
2018-09-27T06:04:24.620Z,19.80
2018-09-27T06:04:56.541Z,19.80
2018-09-27T06:05:28.331Z,19.80
2018-09-27T06:06:00.134Z,19.80
2018-09-27T06:06:31.891Z,19.80
2018-09-27T06:07:03.704Z,19.80
2018-09-27T06:07:35.621Z,19.80
2018-09-27T06:08:07.445Z,19.90
2018-09-27T06:08:39.270Z,19.90
2018-09-27T06:09:11.051Z,19.90
2018-09-27T06:09:42.977Z,19.90
2018-09-27T06:10:14.696Z,19.90
2018-09-27T06:10:46.491Z,19.90
2018-09-27T06:11:18.293Z,19.90
2018-09-27T06:11:50.119Z,19.90
2018-09-27T06:12:21.953Z,19.90
2018-09-27T06:12:53.740Z,19.90
2018-09-27T06:13:25.545Z,19.90
2018-09-27T06:13:57.453Z,19.90
2018-09-27T06:14:29.270Z,19.90
2018-09-27T06:15:01.113Z,19.90
2018-09-27T06:15:32.973Z,19.90
2018-09-27T06:16:04.782Z,19.90
2018-09-27T06:16:36.630Z,19.90
2018-09-27T06:17:08.502Z,19.90
2018-09-27T06:17:40.399Z,19.90
2018-09-27T06:18:12.285Z,19.90
2018-09-27T06:18:44.058Z,19.90
2018-09-27T06:19:16.053Z,19.90
2018-09-27T06:19:47.905Z,20.00
2018-09-27T06:20:19.639Z,19.90
2018-09-27T06:20:51.489Z,19.90
2018-09-27T06:21:23.342Z,19.90
2018-09-27T06:21:55.241Z,20.00
2018-09-27T06:22:27.112Z,20.00
2018-09-27T06:22:59.040Z,20.00
2018-09-27T06:23:30.825Z,20.00
2018-09-27T06:24:02.662Z,20.00
2018-09-27T06:24:34.483Z,20.00
2018-09-27T06:25:06.283Z,20.00
2018-09-27T06:25:38.072Z,20.00
2018-09-27T06:26:09.932Z,20.00
2018-09-27T06:26:41.729Z,20.00
2018-09-27T06:27:13.610Z,20.00
2018-09-27T06:27:45.469Z,20.00
2018-09-27T06:28:17.280Z,20.00
2018-09-27T06:28:49.230Z,20.00
2018-09-27T06:29:21.163Z,20.00
2018-09-27T06:29:53.130Z,20.00
2018-09-27T06:30:25.113Z,20.00
2018-09-27T06:30:57.153Z,20.00
2018-09-27T06:31:28.963Z,20.00
2018-09-27T06:32:00.771Z,20.00
2018-09-27T06:32:32.554Z,20.00
2018-09-27T06:33:04.381Z,20.00
2018-09-27T06:33:36.209Z,20.00
2018-09-27T06:34:08.014Z,20.00
2018-09-27T06:34:39.845Z,20.00
2018-09-27T06:35:11.764Z,20.00
2018-09-27T06:35:43.525Z,20.00
2018-09-27T06:36:15.364Z,20.00
2018-09-27T06:36:47.233Z,20.00
2018-09-27T06:37:19.062Z,20.00
2018-09-27T06:37:50.882Z,20.00
2018-09-27T06:38:22.761Z,20.00
2018-09-27T06:38:54.533Z,20.00
2018-09-27T06:39:26.665Z,20.00
2018-09-27T06:39:58.632Z,20.00
2018-09-27T06:40:30.493Z,20.00
2018-09-27T06:41:02.324Z,20.10
2018-09-27T06:41:34.226Z,20.00
2018-09-27T06:42:05.982Z,20.00
2018-09-27T06:42:37.773Z,20.10
2018-09-27T06:43:09.585Z,20.00
2018-09-27T06:43:41.765Z,20.10
2018-09-27T06:44:13.637Z,20.00
2018-09-27T06:44:45.558Z,20.00
2018-09-27T06:45:17.286Z,20.10
2018-09-27T06:45:49.146Z,20.10
2018-09-27T06:46:21.005Z,20.10
2018-09-27T06:46:52.804Z,20.10
2018-09-27T06:47:24.625Z,20.10
2018-09-27T06:47:56.465Z,20.10
2018-09-27T06:48:28.284Z,20.10
2018-09-27T06:49:00.096Z,20.10
2018-09-27T06:49:31.965Z,20.10
2018-09-27T06:50:04.079Z,20.10
2018-09-27T06:50:35.975Z,20.10
2018-09-27T06:51:07.802Z,20.10
2018-09-27T06:51:39.608Z,20.10
2018-09-27T06:52:11.414Z,20.10
2018-09-27T06:52:43.296Z,20.10
2018-09-27T06:53:15.093Z,20.10
2018-09-27T06:53:46.982Z,20.10
2018-09-27T06:54:18.805Z,20.10
2018-09-27T06:54:50.658Z,20.10